nws-alerts: Checking more than four warning/county codes can delay the loading of your pages. You should use a cron job to get the data.
EllijayWeather Station Historical Data
Daily Summary for January 21, 2019 Units:  English    Metric   Both
Daily Weekly Monthly Yearly Custom
  High: Low: Average:
Temperature: 36.9 °F 15.6 °F 25.1 °F
Dew Point: 19.4 °F 2.5 °F 10.4 °F
Humidity: 77% 30% 55%
Wind Speed: 11.0mph 0.0mph 0.3mph
Wind Gust: 14.0mph - -
Wind- - West
Pressure: 30.54 in 30.29 in -
Precipitation: 0.00 in    
Historical Graphs
 
 
Tabular Data for January 21, 2019
Time Temperature Dew Point Pressure Wind Wind Speed Wind Gust Humidity Rainfall Rate (Hourly) solar
00:04 22.3 °F 12.4 °F 30.29 in Calm     65% 0.00 in meteobridge W/m2
00:09 22.3 °F 12.4 °F 30.29 in Calm     65% 0.00 in meteobridge W/m2
00:14 22.1 °F 12.2 °F 30.29 in Calm     65% 0.00 in meteobridge W/m2
00:19 21.9 °F 11.7 °F 30.29 in Calm     64% 0.00 in meteobridge W/m2
00:24 21.9 °F 12.0 °F 30.29 in Calm   1.0 mph 65% 0.00 in meteobridge W/m2
00:29 21.7 °F 10.0 °F 30.29 in Calm   6.0 mph 60% 0.00 in meteobridge W/m2
00:34 21.6 °F 9.9 °F 30.30 in Calm     60% 0.00 in meteobridge W/m2
00:39 21.4 °F 10.0 °F 30.30 in Calm   1.0 mph 61% 0.00 in meteobridge W/m2
00:44 21.4 °F 9.7 °F 30.30 in Calm   1.0 mph 60% 0.00 in meteobridge W/m2
00:49 21.2 °F 10.2 °F 30.31 in Calm   1.0 mph 62% 0.00 in meteobridge W/m2
00:54 21.2 °F 10.2 °F 30.30 in Calm     62% 0.00 in meteobridge W/m2
00:59 21.0 °F 10.4 °F 30.30 in Calm   3.0 mph 63% 0.00 in meteobridge W/m2
01:04 21.0 °F 10.0 °F 30.31 in Calm   3.0 mph 62% 0.00 in meteobridge W/m2
01:09 20.8 °F 10.2 °F 30.31 in Calm   5.0 mph 63% 0.00 in meteobridge W/m2
01:14 20.8 °F 10.6 °F 30.32 in WNW 2.0 mph 2.0 mph 64% 0.00 in meteobridge W/m2
01:19 20.7 °F 10.0 °F 30.31 in Calm     63% 0.00 in meteobridge W/m2
01:24 20.7 °F 10.0 °F 30.31 in Calm   1.0 mph 63% 0.00 in meteobridge W/m2
01:29 20.7 °F 10.8 °F 30.32 in Calm     65% 0.00 in meteobridge W/m2
01:34 20.5 °F 10.6 °F 30.31 in Calm     65% 0.00 in meteobridge W/m2
01:39 20.5 °F 10.9 °F 30.32 in NW 2.0 mph 2.0 mph 66% 0.00 in meteobridge W/m2
01:44 20.5 °F 10.6 °F 30.31 in Calm   3.0 mph 65% 0.00 in meteobridge W/m2
01:49 20.5 °F 10.2 °F 30.31 in Calm   4.0 mph 64% 0.00 in meteobridge W/m2
01:54 20.3 °F 10.0 °F 30.30 in Calm   6.0 mph 64% 0.00 in meteobridge W/m2
01:59 20.1 °F 9.9 °F 30.31 in Calm   5.0 mph 64% 0.00 in meteobridge W/m2
02:04 20.1 °F 10.2 °F 30.31 in Calm   5.0 mph 65% 0.00 in meteobridge W/m2
02:09 20.1 °F 10.2 °F 30.31 in NNW 2.9 mph 5.0 mph 65% 0.00 in meteobridge W/m2
02:14 19.9 °F 10.4 °F 30.31 in Calm     66% 0.00 in meteobridge W/m2
02:19 19.9 °F 9.7 °F 30.31 in WNW 11.0 mph 11.0 mph 64% 0.00 in meteobridge W/m2
02:24 19.9 °F 10.0 °F 30.31 in NNW 0.9 mph 14.0 mph 65% 0.00 in meteobridge W/m2
02:29 19.9 °F 10.0 °F 30.32 in NW 2.0 mph 9.0 mph 65% 0.00 in meteobridge W/m2
02:34 19.9 °F 10.4 °F 30.32 in NW 2.0 mph 7.0 mph 66% 0.00 in meteobridge W/m2
02:39 19.8 °F 10.2 °F 30.32 in Calm   3.0 mph 66% 0.00 in meteobridge W/m2
02:44 19.8 °F 10.2 °F 30.32 in Calm   2.0 mph 66% 0.00 in meteobridge W/m2
02:49 19.6 °F 10.4 °F 30.32 in Calm   4.0 mph 67% 0.00 in meteobridge W/m2
02:54 19.6 °F 10.4 °F 30.32 in NNE 10.1 mph 10.0 mph 67% 0.00 in meteobridge W/m2
02:59 19.6 °F 10.4 °F 30.32 in East 6.0 mph 6.0 mph 67% 0.00 in meteobridge W/m2
03:04 19.4 °F 10.2 °F 30.32 in Calm   14.0 mph 67% 0.00 in meteobridge W/m2
03:09 19.2 °F 10.0 °F 30.32 in Calm   5.0 mph 67% 0.00 in meteobridge W/m2
03:14 19.2 °F 10.4 °F 30.32 in Calm   4.0 mph 68% 0.00 in meteobridge W/m2
03:19 19.0 °F 10.6 °F 30.32 in North 2.0 mph 7.0 mph 69% 0.00 in meteobridge W/m2
03:24 19.0 °F 10.6 °F 30.32 in Calm   1.0 mph 69% 0.00 in meteobridge W/m2
03:29 18.9 °F 10.4 °F 30.32 in Calm   4.0 mph 69% 0.00 in meteobridge W/m2
03:34 18.9 °F 10.4 °F 30.33 in Calm   6.0 mph 69% 0.00 in meteobridge W/m2
03:39 18.9 °F 10.8 °F 30.32 in Calm   7.0 mph 70% 0.00 in meteobridge W/m2
03:44 18.9 °F 10.8 °F 30.33 in North 2.0 mph 4.0 mph 70% 0.00 in meteobridge W/m2
03:49 18.9 °F 10.8 °F 30.33 in WNW 2.9 mph 13.0 mph 70% 0.00 in meteobridge W/m2
03:54 18.7 °F 10.6 °F 30.33 in Calm   7.0 mph 70% 0.00 in meteobridge W/m2
03:59 18.7 °F 10.6 °F 30.34 in NW 0.9 mph 9.0 mph 70% 0.00 in meteobridge W/m2
04:04 18.7 °F 10.8 °F 30.34 in NNW 0.9 mph 1.0 mph 71% 0.00 in meteobridge W/m2
04:09 18.5 °F 10.4 °F 30.34 in Calm   8.0 mph 70% 0.00 in meteobridge W/m2
04:14 18.5 °F 10.4 °F 30.34 in NW 2.0 mph 7.0 mph 70% 0.00 in meteobridge W/m2
04:19 18.3 °F 9.9 °F 30.34 in Calm   2.0 mph 69% 0.00 in meteobridge W/m2
04:24 18.3 °F 9.5 °F 30.34 in WNW 4.9 mph 10.0 mph 68% 0.00 in meteobridge W/m2
04:29 18.1 °F 9.7 °F 30.34 in Calm   2.0 mph 69% 0.00 in meteobridge W/m2
04:34 18.1 °F 9.7 °F 30.34 in Calm   1.0 mph 69% 0.00 in meteobridge W/m2
04:39 18.0 °F 8.6 °F 30.34 in Calm   4.0 mph 66% 0.00 in meteobridge W/m2
04:44 18.0 °F 8.8 °F 30.35 in Calm   5.0 mph 67% 0.00 in meteobridge W/m2
04:49 17.8 °F 7.7 °F 30.34 in Calm     64% 0.00 in meteobridge W/m2
04:54 17.8 °F 7.3 °F 30.34 in Calm   4.0 mph 63% 0.00 in meteobridge W/m2
04:59 17.4 °F 6.6 °F 30.34 in Calm   4.0 mph 62% 0.00 in meteobridge W/m2
05:04 17.4 °F 6.3 °F 30.35 in Calm   2.0 mph 61% 0.00 in meteobridge W/m2
05:09 17.4 °F 6.3 °F 30.35 in WNW 2.9 mph 3.0 mph 61% 0.00 in meteobridge W/m2
05:14 17.2 °F 6.1 °F 30.35 in Calm   4.0 mph 61% 0.00 in meteobridge W/m2
05:19 17.2 °F 6.1 °F 30.35 in Calm   2.0 mph 61% 0.00 in meteobridge W/m2
05:24 17.1 °F 5.9 °F 30.35 in Calm   8.0 mph 61% 0.00 in meteobridge W/m2
05:29 17.1 °F 5.5 °F 30.35 in Calm   1.0 mph 60% 0.00 in meteobridge W/m2
05:34 16.9 °F 5.4 °F 30.35 in NW 0.9 mph 3.0 mph 60% 0.00 in meteobridge W/m2
05:39 16.9 °F 5.4 °F 30.35 in NW 2.0 mph 3.0 mph 60% 0.00 in meteobridge W/m2
05:44 16.9 °F 5.0 °F 30.36 in Calm   10.0 mph 59% 0.00 in meteobridge W/m2
05:49 16.7 °F 5.5 °F 30.36 in NNE 2.0 mph 5.0 mph 61% 0.00 in meteobridge W/m2
05:54 16.5 °F 4.6 °F 30.36 in Calm   4.0 mph 59% 0.00 in meteobridge W/m2
05:59 16.5 °F 5.0 °F 30.36 in Calm   3.0 mph 60% 0.00 in meteobridge W/m2
06:04 16.5 °F 4.6 °F 30.36 in WNW 2.0 mph 4.0 mph 59% 0.00 in meteobridge W/m2
06:09 16.3 °F 4.8 °F 30.37 in Calm   5.0 mph 60% 0.00 in meteobridge W/m2
06:14 16.3 °F 4.5 °F 30.37 in Calm   8.0 mph 59% 0.00 in meteobridge W/m2
06:19 16.3 °F 4.8 °F 30.38 in Calm     60% 0.00 in meteobridge W/m2
06:24 16.2 °F 3.9 °F 30.38 in Calm   10.0 mph 58% 0.00 in meteobridge W/m2
06:29 16.2 °F 4.3 °F 30.39 in NNW 4.0 mph 6.0 mph 59% 0.00 in meteobridge W/m2
06:34 16.2 °F 4.3 °F 30.39 in WNW 2.0 mph 3.0 mph 59% 0.00 in meteobridge W/m2
06:39 16.2 °F 4.3 °F 30.39 in Calm   4.0 mph 59% 0.00 in meteobridge W/m2
06:44 16.0 °F 4.1 °F 30.40 in Calm   5.0 mph 59% 0.00 in meteobridge W/m2
06:49 16.0 °F 4.5 °F 30.40 in North 2.0 mph 7.0 mph 60% 0.00 in meteobridge W/m2
06:54 16.0 °F 4.8 °F 30.40 in Calm   5.0 mph 61% 0.00 in meteobridge W/m2
06:59 16.0 °F 4.8 °F 30.40 in NW 0.9 mph 5.0 mph 61% 0.00 in meteobridge W/m2
07:04 16.0 °F 4.1 °F 30.40 in Calm   6.0 mph 59% 0.00 in meteobridge W/m2
07:09 15.8 °F 4.1 °F 30.41 in Calm   6.0 mph 59% 0.00 in meteobridge W/m2
07:14 15.8 °F 4.5 °F 30.40 in Calm   5.0 mph 60% 0.00 in meteobridge W/m2
07:19 15.8 °F 4.1 °F 30.41 in Calm   8.0 mph 59% 0.00 in meteobridge W/m2
07:24 15.8 °F 4.1 °F 30.41 in Calm   5.0 mph 59% 0.00 in meteobridge W/m2
07:29 15.6 °F 3.9 °F 30.41 in Calm   5.0 mph 59% 0.00 in meteobridge W/m2
07:34 15.6 °F 3.9 °F 30.41 in Calm   3.0 mph 59% 0.00 in meteobridge W/m2
07:39 15.8 °F 3.6 °F 30.41 in Calm   2.0 mph 58% 0.00 in meteobridge W/m2
07:44 15.8 °F 4.5 °F 30.42 in Calm   3.0 mph 60% 0.00 in meteobridge W/m2
07:49 16.0 °F 3.7 °F 30.42 in Calm   3.0 mph 58% 0.00 in meteobridge W/m2
07:54 16.0 °F 3.7 °F 30.43 in Calm     58% 0.00 in meteobridge W/m2
07:59 16.0 °F 3.0 °F 30.43 in Calm   5.0 mph 56% 0.00 in meteobridge W/m2
08:04 16.0 °F 2.7 °F 30.44 in Calm   2.0 mph 55% 0.00 in meteobridge W/m2
08:09 16.2 °F 3.2 °F 30.45 in NW 2.0 mph 2.0 mph 56% 0.00 in meteobridge W/m2
08:14 16.2 °F 5.0 °F 30.45 in Calm   7.0 mph 61% 0.00 in meteobridge W/m2
08:19 16.3 °F 3.0 °F 30.45 in Calm   5.0 mph 55% 0.00 in meteobridge W/m2
08:24 16.3 °F 3.4 °F 30.46 in Calm   3.0 mph 56% 0.00 in meteobridge W/m2
08:29 16.5 °F 3.9 °F 30.46 in Calm   3.0 mph 57% 0.00 in meteobridge W/m2
08:34 16.7 °F 3.4 °F 30.46 in Calm   3.0 mph 55% 0.00 in meteobridge W/m2
08:39 16.9 °F 3.9 °F 30.47 in Calm   1.0 mph 56% 0.00 in meteobridge W/m2
08:44 17.1 °F 3.2 °F 30.47 in Calm     54% 0.00 in meteobridge W/m2
08:49 17.2 °F 3.9 °F 30.48 in Calm   1.0 mph 55% 0.00 in meteobridge W/m2
08:54 17.2 °F 3.4 °F 30.49 in Calm     54% 0.00 in meteobridge W/m2
08:59 17.4 °F 3.6 °F 30.50 in Calm   1.0 mph 54% 0.00 in meteobridge W/m2
09:04 17.8 °F 3.9 °F 30.50 in Calm     54% 0.00 in meteobridge W/m2
09:09 18.0 °F 4.5 °F 30.50 in Calm     55% 0.00 in meteobridge W/m2
09:14 18.3 °F 3.6 °F 30.50 in Calm     52% 0.00 in meteobridge W/m2
09:19 18.3 °F 3.6 °F 30.50 in Calm     52% 0.00 in meteobridge W/m2
09:24 18.7 °F 3.6 °F 30.51 in Calm   1.0 mph 51% 0.00 in meteobridge W/m2
09:29 19.0 °F 3.9 °F 30.51 in Calm   1.0 mph 51% 0.00 in meteobridge W/m2
09:34 19.2 °F 3.6 °F 30.52 in Calm     50% 0.00 in meteobridge W/m2
09:39 19.6 °F 4.8 °F 30.51 in Calm   1.0 mph 52% 0.00 in meteobridge W/m2
09:44 20.1 °F 3.6 °F 30.52 in Calm     48% 0.00 in meteobridge W/m2
09:49 20.7 °F 3.6 °F 30.52 in Calm     47% 0.00 in meteobridge W/m2
09:54 21.0 °F 3.9 °F 30.52 in Calm   3.0 mph 47% 0.00 in meteobridge W/m2
09:59 21.6 °F 3.9 °F 30.52 in NW 0.9 mph 3.0 mph 46% 0.00 in meteobridge W/m2
10:04 21.7 °F 3.7 °F 30.53 in Calm   1.0 mph 45% 0.00 in meteobridge W/m2
10:09 22.3 °F 5.2 °F 30.53 in Calm     47% 0.00 in meteobridge W/m2
10:14 22.6 °F 3.6 °F 30.53 in Calm   5.0 mph 43% 0.00 in meteobridge W/m2
10:19 22.8 °F 4.1 °F 30.53 in NW 2.9 mph 3.0 mph 44% 0.00 in meteobridge W/m2
10:24 22.8 °F 3.2 °F 30.53 in Calm   5.0 mph 42% 0.00 in meteobridge W/m2
10:29 22.8 °F 3.7 °F 30.54 in NNW 2.9 mph 3.0 mph 43% 0.00 in meteobridge W/m2
10:34 23.2 °F 2.5 °F 30.53 in Calm   4.0 mph 40% 0.00 in meteobridge W/m2
10:39 23.4 °F 3.2 °F 30.54 in NNW 2.9 mph 3.0 mph 41% 0.00 in meteobridge W/m2
10:44 23.5 °F 2.8 °F 30.54 in Calm   1.0 mph 40% 0.00 in meteobridge W/m2
10:49 23.7 °F 3.4 °F 30.54 in NNW 2.0 mph 2.0 mph 41% 0.00 in meteobridge W/m2
10:54 24.1 °F 3.7 °F 30.54 in Calm   1.0 mph 41% 0.00 in meteobridge W/m2
10:59 24.3 °F 5.0 °F 30.53 in Calm     43% 0.00 in meteobridge W/m2
11:04 24.6 °F 4.8 °F 30.53 in Calm     42% 0.00 in meteobridge W/m2
11:08 24.8 °F 5.5 °F 30.53 in Calm     43% 0.00 in meteobridge W/m2
11:14 25.2 °F 4.8 °F 30.53 in WSW 2.0 mph 4.0 mph 41% 0.00 in meteobridge W/m2
11:19 25.2 °F 4.8 °F 30.53 in Calm   2.0 mph 41% 0.00 in meteobridge W/m2
11:24 25.5 °F 5.5 °F 30.54 in Calm     42% 0.00 in meteobridge W/m2
11:29 25.9 °F 6.4 °F 30.54 in Calm   2.0 mph 43% 0.00 in meteobridge W/m2
11:34 26.2 °F 6.8 °F 30.54 in Calm     43% 0.00 in meteobridge W/m2
11:39 26.6 °F 6.6 °F 30.54 in Calm     42% 0.00 in meteobridge W/m2
11:44 27.0 °F 7.0 °F 30.53 in Calm     42% 0.00 in meteobridge W/m2
11:49 27.1 °F 6.6 °F 30.54 in Calm   3.0 mph 41% 0.00 in meteobridge W/m2
11:54 27.3 °F 7.2 °F 30.53 in Calm     42% 0.00 in meteobridge W/m2
11:59 27.7 °F 7.0 °F 30.54 in Calm   2.0 mph 41% 0.00 in meteobridge W/m2
12:04 28.0 °F 6.3 °F 30.53 in Calm   2.0 mph 39% 0.00 in meteobridge W/m2
12:09 28.2 °F 6.4 °F 30.53 in Calm   2.0 mph 39% 0.00 in meteobridge W/m2
12:14 28.8 °F 7.5 °F 30.53 in Calm     40% 0.00 in meteobridge W/m2
12:19 29.1 °F 6.6 °F 30.53 in Calm   1.0 mph 38% 0.00 in meteobridge W/m2
12:24 29.5 °F 8.1 °F 30.53 in Calm     40% 0.00 in meteobridge W/m2
12:29 29.8 °F 7.9 °F 30.53 in Calm     39% 0.00 in meteobridge W/m2
12:34 30.0 °F 7.0 °F 30.53 in Calm   1.0 mph 37% 0.00 in meteobridge W/m2
12:39 30.4 °F 8.4 °F 30.53 in Calm     39% 0.00 in meteobridge W/m2
12:44 30.6 °F 8.6 °F 30.53 in Calm     39% 0.00 in meteobridge W/m2
12:49 30.7 °F 8.8 °F 30.53 in Calm   1.0 mph 39% 0.00 in meteobridge W/m2
12:54 30.9 °F 6.4 °F 30.53 in Calm   4.0 mph 35% 0.00 in meteobridge W/m2
12:59 31.1 °F 6.6 °F 30.52 in Calm   5.0 mph 35% 0.00 in meteobridge W/m2
13:04 31.6 °F 7.7 °F 30.52 in Calm   1.0 mph 36% 0.00 in meteobridge W/m2
13:09 31.8 °F 6.6 °F 30.52 in Calm     34% 0.00 in meteobridge W/m2
13:14 31.8 °F 6.6 °F 30.52 in Calm   2.0 mph 34% 0.00 in meteobridge W/m2
13:19 32.2 °F 7.5 °F 30.52 in Calm   5.0 mph 35% 0.00 in meteobridge W/m2
13:24 32.4 °F 9.0 °F 30.52 in Calm     37% 0.00 in meteobridge W/m2
13:29 32.7 °F 9.3 °F 30.52 in Calm     37% 0.00 in meteobridge W/m2
13:34 33.1 °F 9.0 °F 30.51 in Calm     36% 0.00 in meteobridge W/m2
13:39 33.3 °F 8.6 °F 30.51 in Calm   2.0 mph 35% 0.00 in meteobridge W/m2
13:44 33.4 °F 8.8 °F 30.50 in Calm     35% 0.00 in meteobridge W/m2
13:49 33.6 °F 9.5 °F 30.51 in Calm   1.0 mph 36% 0.00 in meteobridge W/m2
13:54 33.8 °F 9.0 °F 30.51 in Calm   3.0 mph 35% 0.00 in meteobridge W/m2
13:59 34.2 °F 9.3 °F 30.50 in Calm   3.0 mph 35% 0.00 in meteobridge W/m2
14:04 34.2 °F 8.8 °F 30.49 in Calm     34% 0.00 in meteobridge W/m2
14:09 34.3 °F 10.2 °F 30.49 in Calm   4.0 mph 36% 0.00 in meteobridge W/m2
14:14 34.3 °F 9.0 °F 30.49 in Calm   4.0 mph 34% 0.00 in meteobridge W/m2
14:19 34.5 °F 9.7 °F 30.49 in NW 2.0 mph 2.0 mph 35% 0.00 in meteobridge W/m2
14:24 34.9 °F 10.6 °F 30.49 in Calm   1.0 mph 36% 0.00 in meteobridge W/m2
14:29 35.2 °F 9.0 °F 30.49 in WNW 0.9 mph 1.0 mph 33% 0.00 in meteobridge W/m2
14:34 35.4 °F 9.9 °F 30.49 in Calm   2.0 mph 34% 0.00 in meteobridge W/m2
14:39 35.8 °F 10.2 °F 30.49 in Calm   3.0 mph 34% 0.00 in meteobridge W/m2
14:44 36.0 °F 9.0 °F 30.49 in Calm   3.0 mph 32% 0.00 in meteobridge W/m2
14:49 36.1 °F 8.4 °F 30.48 in Calm   3.0 mph 31% 0.00 in meteobridge W/m2
14:54 36.1 °F 9.1 °F 30.48 in Calm     32% 0.00 in meteobridge W/m2
14:59 36.1 °F 7.7 °F 30.49 in Calm   2.0 mph 30% 0.00 in meteobridge W/m2
15:04 36.1 °F 8.4 °F 30.49 in Calm   5.0 mph 31% 0.00 in meteobridge W/m2
15:09 36.3 °F 7.9 °F 30.48 in Calm   3.0 mph 30% 0.00 in meteobridge W/m2
15:14 36.3 °F 9.3 °F 30.48 in NW 2.9 mph 4.0 mph 32% 0.00 in meteobridge W/m2
15:19 36.3 °F 7.9 °F 30.48 in Calm   3.0 mph 30% 0.00 in meteobridge W/m2
15:24 36.5 °F 9.5 °F 30.48 in Calm     32% 0.00 in meteobridge W/m2
15:29 36.7 °F 9.0 °F 30.48 in NW 2.9 mph 3.0 mph 31% 0.00 in meteobridge W/m2
15:34 36.7 °F 8.2 °F 30.48 in Calm     30% 0.00 in meteobridge W/m2
15:39 36.9 °F 9.7 °F 30.48 in Calm     32% 0.00 in meteobridge W/m2
15:44 36.9 °F 9.7 °F 30.48 in Calm     32% 0.00 in meteobridge W/m2
15:49 36.9 °F 9.0 °F 30.48 in Calm   3.0 mph 31% 0.00 in meteobridge W/m2
15:54 36.9 °F 9.0 °F 30.47 in Calm     31% 0.00 in meteobridge W/m2
15:59 36.9 °F 9.0 °F 30.47 in Calm   2.0 mph 31% 0.00 in meteobridge W/m2
16:04 36.9 °F 9.0 °F 30.48 in Calm   4.0 mph 31% 0.00 in meteobridge W/m2
16:09 36.9 °F 11.8 °F 30.48 in Calm     35% 0.00 in meteobridge W/m2
16:14 36.9 °F 10.4 °F 30.48 in Calm     33% 0.00 in meteobridge W/m2
16:19 36.9 °F 13.6 °F 30.47 in Calm   2.0 mph 38% 0.00 in meteobridge W/m2
16:24 36.7 °F 15.3 °F 30.48 in Calm     41% 0.00 in meteobridge W/m2
16:29 36.5 °F 15.1 °F 30.48 in Calm     41% 0.00 in meteobridge W/m2
16:34 36.3 °F 13.6 °F 30.48 in Calm     39% 0.00 in meteobridge W/m2
16:39 36.1 °F 12.9 °F 30.48 in Calm   1.0 mph 38% 0.00 in meteobridge W/m2
16:44 36.1 °F 14.2 °F 30.49 in Calm     40% 0.00 in meteobridge W/m2
16:49 36.0 °F 15.1 °F 30.49 in Calm     42% 0.00 in meteobridge W/m2
16:54 35.8 °F 16.0 °F 30.49 in Calm     44% 0.00 in meteobridge W/m2
16:59 35.6 °F 16.3 °F 30.49 in Calm     45% 0.00 in meteobridge W/m2
17:04 35.2 °F 14.4 °F 30.49 in Calm     42% 0.00 in meteobridge W/m2
17:09 35.1 °F 16.3 °F 30.49 in Calm     46% 0.00 in meteobridge W/m2
17:14 34.9 °F 16.7 °F 30.50 in Calm     47% 0.00 in meteobridge W/m2
17:19 34.5 °F 14.4 °F 30.50 in Calm     43% 0.00 in meteobridge W/m2
17:24 34.3 °F 16.2 °F 30.50 in Calm     47% 0.00 in meteobridge W/m2
17:29 34.2 °F 17.4 °F 30.50 in Calm     50% 0.00 in meteobridge W/m2
17:34 33.6 °F 17.4 °F 30.51 in Calm     51% 0.00 in meteobridge W/m2
17:39 33.4 °F 14.9 °F 30.51 in Calm     46% 0.00 in meteobridge W/m2
17:44 32.9 °F 15.8 °F 30.51 in Calm     49% 0.00 in meteobridge W/m2
17:49 32.7 °F 16.5 °F 30.51 in Calm     51% 0.00 in meteobridge W/m2
17:54 32.5 °F 16.0 °F 30.51 in Calm     50% 0.00 in meteobridge W/m2
17:59 32.2 °F 16.2 °F 30.51 in Calm     51% 0.00 in meteobridge W/m2
18:04 31.8 °F 15.8 °F 30.52 in Calm     51% 0.00 in meteobridge W/m2
18:09 31.8 °F 15.3 °F 30.52 in Calm     50% 0.00 in meteobridge W/m2
18:14 31.5 °F 14.0 °F 30.52 in Calm     48% 0.00 in meteobridge W/m2
18:19 31.3 °F 15.6 °F 30.52 in Calm     52% 0.00 in meteobridge W/m2
18:24 30.7 °F 15.3 °F 30.53 in Calm     52% 0.00 in meteobridge W/m2
18:29 30.4 °F 14.0 °F 30.52 in Calm     50% 0.00 in meteobridge W/m2
18:34 30.0 °F 14.5 °F 30.52 in Calm     52% 0.00 in meteobridge W/m2
18:39 29.8 °F 14.4 °F 30.52 in Calm     52% 0.00 in meteobridge W/m2
18:44 29.7 °F 15.1 °F 30.52 in Calm     54% 0.00 in meteobridge W/m2
18:49 29.5 °F 14.9 °F 30.52 in Calm     54% 0.00 in meteobridge W/m2
18:54 29.1 °F 14.9 °F 30.52 in Calm     55% 0.00 in meteobridge W/m2
18:59 28.9 °F 15.3 °F 30.52 in Calm     56% 0.00 in meteobridge W/m2
19:04 28.8 °F 15.1 °F 30.53 in Calm     56% 0.00 in meteobridge W/m2
19:09 28.8 °F 15.4 °F 30.53 in Calm     57% 0.00 in meteobridge W/m2
19:14 28.6 °F 16.5 °F 30.53 in Calm     60% 0.00 in meteobridge W/m2
19:19 28.2 °F 16.2 °F 30.53 in Calm     60% 0.00 in meteobridge W/m2
19:24 28.2 °F 16.9 °F 30.53 in Calm     62% 0.00 in meteobridge W/m2
19:29 28.0 °F 16.7 °F 30.53 in Calm     62% 0.00 in meteobridge W/m2
19:34 27.9 °F 16.9 °F 30.53 in Calm     63% 0.00 in meteobridge W/m2
19:39 27.9 °F 16.9 °F 30.53 in Calm     63% 0.00 in meteobridge W/m2
19:44 27.7 °F 17.1 °F 30.53 in Calm     64% 0.00 in meteobridge W/m2
19:49 27.5 °F 17.6 °F 30.53 in Calm     66% 0.00 in meteobridge W/m2
19:54 27.3 °F 17.4 °F 30.53 in Calm     66% 0.00 in meteobridge W/m2
19:59 27.3 °F 17.8 °F 30.52 in Calm     67% 0.00 in meteobridge W/m2
20:03 27.1 °F 17.6 °F 30.52 in Calm     67% 0.00 in meteobridge W/m2
20:09 27.0 °F 17.4 °F 30.52 in Calm     67% 0.00 in meteobridge W/m2
20:14 27.0 °F 17.4 °F 30.52 in Calm     67% 0.00 in meteobridge W/m2
20:19 27.0 °F 17.8 °F 30.52 in Calm     68% 0.00 in meteobridge W/m2
20:24 26.8 °F 17.6 °F 30.52 in Calm     68% 0.00 in meteobridge W/m2
20:29 26.8 °F 18.0 °F 30.52 in Calm     69% 0.00 in meteobridge W/m2
20:34 26.4 °F 17.6 °F 30.52 in Calm     69% 0.00 in meteobridge W/m2
20:39 26.4 °F 18.3 °F 30.52 in Calm     71% 0.00 in meteobridge W/m2
20:44 26.2 °F 18.1 °F 30.52 in Calm     71% 0.00 in meteobridge W/m2
20:49 26.2 °F 18.5 °F 30.52 in Calm     72% 0.00 in meteobridge W/m2
20:54 26.1 °F 18.0 °F 30.53 in Calm     71% 0.00 in meteobridge W/m2
20:59 26.1 °F 18.3 °F 30.52 in Calm     72% 0.00 in meteobridge W/m2
21:04 26.1 °F 18.3 °F 30.52 in Calm     72% 0.00 in meteobridge W/m2
21:09 26.1 °F 18.3 °F 30.52 in Calm     72% 0.00 in meteobridge W/m2
21:14 25.9 °F 18.1 °F 30.52 in Calm     72% 0.00 in meteobridge W/m2
21:19 25.9 °F 18.1 °F 30.52 in Calm     72% 0.00 in meteobridge W/m2
21:24 25.7 °F 18.0 °F 30.52 in Calm     72% 0.00 in meteobridge W/m2
21:29 25.7 °F 18.0 °F 30.52 in Calm     72% 0.00 in meteobridge W/m2
21:34 25.5 °F 17.8 °F 30.52 in Calm     72% 0.00 in meteobridge W/m2
21:39 25.5 °F 17.8 °F 30.52 in Calm     72% 0.00 in meteobridge W/m2
21:44 25.3 °F 17.6 °F 30.52 in Calm     72% 0.00 in meteobridge W/m2
21:49 25.3 °F 18.0 °F 30.52 in Calm     73% 0.00 in meteobridge W/m2
21:54 25.3 °F 18.1 °F 30.52 in Calm     74% 0.00 in meteobridge W/m2
21:59 25.3 °F 18.1 °F 30.52 in Calm     74% 0.00 in meteobridge W/m2
22:04 25.3 °F 18.5 °F 30.52 in Calm     75% 0.00 in meteobridge W/m2
22:09 25.3 °F 18.0 °F 30.52 in Calm     73% 0.00 in meteobridge W/m2
22:14 25.3 °F 18.1 °F 30.52 in Calm     74% 0.00 in meteobridge W/m2
22:19 25.3 °F 18.9 °F 30.52 in Calm     76% 0.00 in meteobridge W/m2
22:24 25.2 °F 18.0 °F 30.52 in Calm     74% 0.00 in meteobridge W/m2
22:29 25.2 °F 18.3 °F 30.52 in Calm     75% 0.00 in meteobridge W/m2
22:34 25.2 °F 18.3 °F 30.52 in Calm     75% 0.00 in meteobridge W/m2
22:39 25.3 °F 18.5 °F 30.51 in Calm     75% 0.00 in meteobridge W/m2
22:44 25.3 °F 18.9 °F 30.51 in Calm     76% 0.00 in meteobridge W/m2
22:49 25.3 °F 18.9 °F 30.52 in Calm     76% 0.00 in meteobridge W/m2
22:54 25.3 °F 19.2 °F 30.51 in Calm     77% 0.00 in meteobridge W/m2
22:59 25.3 °F 18.9 °F 30.51 in Calm     76% 0.00 in meteobridge W/m2
23:04 25.5 °F 19.0 °F 30.52 in Calm     76% 0.00 in meteobridge W/m2
23:09 25.7 °F 19.2 °F 30.52 in Calm     76% 0.00 in meteobridge W/m2
23:14 25.9 °F 18.7 °F 30.52 in Calm     74% 0.00 in meteobridge W/m2
23:19 26.2 °F 19.4 °F 30.52 in Calm     75% 0.00 in meteobridge W/m2
23:24 27.7 °F 17.1 °F 30.52 in Calm     64% 0.00 in meteobridge W/m2
23:29 28.6 °F 17.6 °F 30.52 in Calm     63% 0.00 in meteobridge W/m2
23:34 29.7 °F 16.3 °F 30.52 in SE 2.0 mph 4.0 mph 57% 0.00 in meteobridge W/m2
23:39 30.4 °F 16.2 °F 30.52 in Calm     55% 0.00 in meteobridge W/m2
23:44 30.7 °F 15.3 °F 30.52 in Calm   1.0 mph 52% 0.00 in meteobridge W/m2
23:49 30.9 °F 14.5 °F 30.52 in Calm   2.0 mph 50% 0.00 in meteobridge W/m2
23:54 31.3 °F 14.4 °F 30.53 in Calm     49% 0.00 in meteobridge W/m2
23:59 31.6 °F 14.7 °F 30.53 in Calm     49% 0.00 in meteobridge W/m2
EllijayWeather
Compliments of Weather Underground - 2.5 mb